Wetterdaten: Woche 30.08.10 - 05.09.10 (KW35)
Datum Zeit Temperatur Luftfeuchte Luftdruck Niederschlag Windrichtung Sonnenschein Solar Wind
30.08.2010 00:00 11,1 C 91 % 1011,1 hPa 0,4 l/m W-SW 0,00 h 0 W/m 12,0 km/h (2 Bft)
30.08.2010 01:00 10,9 C 93 % 1010,4 hPa 0,2 l/m W-SW 0,00 h 0 W/m 16,4 km/h (3 Bft)
30.08.2010 02:00 10,9 C 92 % 1009,9 hPa 0,8 l/m W-SW 0,00 h 0 W/m 20,5 km/h (4 Bft)
30.08.2010 03:00 10,8 C 93 % 1009,5 hPa 1,2 l/m W-SW 0,00 h 0 W/m 20,2 km/h (4 Bft)
30.08.2010 04:00 10,0 C 91 % 1009,5 hPa 1,8 l/m W 0,00 h 0 W/m 20,7 km/h (4 Bft)
30.08.2010 05:00 8,6 C 90 % 1009,4 hPa 0,0 l/m W-SW 0,00 h 0 W/m 12,9 km/h (3 Bft)
30.08.2010 06:00 8,1 C 91 % 1009,9 hPa 0,0 l/m W-SW 0,00 h 5 W/m 9,2 km/h (2 Bft)
30.08.2010 07:00 7,8 C 91 % 1010,4 hPa 0,2 l/m SW 0,08 h 37 W/m 14,9 km/h (3 Bft)
30.08.2010 08:00 8,4 C 89 % 1011,1 hPa 0,0 l/m W-SW 0,17 h 96 W/m 20,2 km/h (4 Bft)
30.08.2010 09:00 9,5 C 86 % 1011,3 hPa 0,0 l/m W-SW 0,08 h 184 W/m 27,9 km/h (4 Bft)
30.08.2010 10:00 10,1 C 83 % 1011,8 hPa 0,0 l/m W 0,25 h 269 W/m 33,9 km/h (5 Bft)
30.08.2010 11:00 10,8 C 79 % 1011,8 hPa 0,0 l/m W-SW 0,08 h 206 W/m 29,1 km/h (5 Bft)
30.08.2010 12:00 10,0 C 84 % 1011,9 hPa 0,0 l/m W-SW 0,00 h 154 W/m 35,5 km/h (5 Bft)
30.08.2010 13:00 9,8 C 88 % 1011,9 hPa 0,2 l/m W-SW 0,00 h 193 W/m 32,2 km/h (5 Bft)
30.08.2010 14:00 9,9 C 90 % 1012,1 hPa 0,2 l/m W-SW 0,00 h 169 W/m 25,5 km/h (4 Bft)
30.08.2010 15:00 10,1 C 88 % 1012,3 hPa 0,0 l/m W 0,00 h 86 W/m 24,7 km/h (4 Bft)
30.08.2010 16:00 9,8 C 91 % 1012,5 hPa 1,2 l/m W 0,00 h 109 W/m 24,4 km/h (4 Bft)
30.08.2010 17:00 9,8 C 94 % 1012,7 hPa 1,2 l/m W-SW 0,00 h 126 W/m 25,7 km/h (4 Bft)
30.08.2010 18:00 10,1 C 94 % 1013,0 hPa 0,4 l/m W 0,08 h 84 W/m 23,5 km/h (4 Bft)
30.08.2010 19:00 10,0 C 94 % 1013,3 hPa 0,0 l/m W-SW 0,17 h 39 W/m 19,6 km/h (3 Bft)
30.08.2010 20:00 9,8 C 94 % 1013,8 hPa 3,4 l/m W 0,00 h 0 W/m 19,6 km/h (3 Bft)
30.08.2010 21:00 9,8 C 95 % 1014,2 hPa 4,2 l/m W-SW 0,00 h 0 W/m 18,8 km/h (3 Bft)
30.08.2010 22:00 9,8 C 96 % 1014,7 hPa 7,8 l/m N-NW 0,00 h 0 W/m 9,6 km/h (2 Bft)
30.08.2010 23:00 9,6 C 96 % 1015,1 hPa 0,2 l/m N-NW 0,00 h 0 W/m 10,7 km/h (2 Bft)
31.08.2010 00:00 9,8 C 96 % 1015,6 hPa 0,0 l/m NW 0,00 h 0 W/m 10,1 km/h (2 Bft)
31.08.2010 01:00 9,8 C 95 % 1016,1 hPa 0,0 l/m NW 0,00 h 0 W/m 14,9 km/h (3 Bft)
31.08.2010 02:00 9,7 C 93 % 1016,6 hPa 0,0 l/m NW 0,00 h 0 W/m 9,2 km/h (2 Bft)
31.08.2010 03:00 9,7 C 93 % 1017,0 hPa 0,2 l/m W-NW 0,00 h 0 W/m 12,5 km/h (3 Bft)
31.08.2010 04:00 9,7 C 93 % 1017,5 hPa 0,0 l/m W-NW 0,00 h 0 W/m 13,3 km/h (3 Bft)
31.08.2010 05:00 9,6 C 93 % 1017,8 hPa 0,0 l/m W-NW 0,00 h 0 W/m 10,9 km/h (2 Bft)
31.08.2010 06:00 9,6 C 92 % 1018,3 hPa 0,0 l/m W-NW 0,00 h 0 W/m 9,2 km/h (2 Bft)
31.08.2010 07:00 9,5 C 93 % 1018,9 hPa 0,0 l/m NW 0,00 h 11 W/m 8,0 km/h (2 Bft)
31.08.2010 08:00 9,7 C 92 % 1019,7 hPa 0,0 l/m N-NW 0,00 h 48 W/m 11,4 km/h (2 Bft)
31.08.2010 09:00 10,5 C 88 % 1020,2 hPa 0,0 l/m NW 0,00 h 174 W/m 12,9 km/h (3 Bft)
31.08.2010 10:00 11,4 C 83 % 1020,9 hPa 0,0 l/m N-NW 0,00 h 224 W/m 13,2 km/h (3 Bft)
31.08.2010 11:00 12,4 C 79 % 1021,1 hPa 0,0 l/m N-NO 0,50 h 444 W/m 14,9 km/h (3 Bft)
31.08.2010 12:00 13,8 C 72 % 1021,0 hPa 0,0 l/m W-NW 0,50 h 568 W/m 14,5 km/h (3 Bft)
31.08.2010 13:00 13,5 C 70 % 1021,0 hPa 0,0 l/m N-NO 0,00 h 287 W/m 11,1 km/h (2 Bft)
31.08.2010 14:00 14,2 C 67 % 1020,7 hPa 0,0 l/m N 0,25 h 484 W/m 13,2 km/h (3 Bft)
31.08.2010 15:00 14,9 C 63 % 1020,3 hPa 0,0 l/m N 0,50 h 437 W/m 14,8 km/h (3 Bft)
31.08.2010 16:00 15,8 C 55 % 1020,0 hPa 0,0 l/m N-NW 1,00 h 524 W/m 16,0 km/h (3 Bft)
31.08.2010 17:00 15,7 C 52 % 1019,8 hPa 0,0 l/m N 1,00 h 368 W/m 16,1 km/h (3 Bft)
31.08.2010 18:00 15,0 C 57 % 1019,7 hPa 0,0 l/m N-NO 0,92 h 172 W/m 13,3 km/h (3 Bft)
31.08.2010 19:00 12,5 C 71 % 1019,8 hPa 0,0 l/m N-NO 0,08 h 18 W/m 5,4 km/h (1 Bft)
31.08.2010 20:00 10,1 C 86 % 1020,3 hPa 0,0 l/m N 0,00 h 0 W/m 1,1 km/h (0 Bft)
31.08.2010 21:00 8,3 C 92 % 1020,5 hPa 0,0 l/m N 0,00 h 0 W/m 0,7 km/h (0 Bft)
31.08.2010 22:00 7,6 C 94 % 1020,5 hPa 0,0 l/m N 0,00 h 0 W/m 0,1 km/h (0 Bft)
31.08.2010 23:00 7,0 C 95 % 1020,4 hPa 0,0 l/m N 0,00 h 0 W/m 0,3 km/h (0 Bft)
01.09.2010 00:00 6,5 C 96 % 1020,2 hPa 0,0 l/m N 0,00 h 0 W/m 0,0 km/h (0 Bft)
01.09.2010 01:00 6,0 C 96 % 1019,9 hPa 0,0 l/m N 0,00 h 0 W/m 0,0 km/h (0 Bft)
01.09.2010 02:00 5,8 C 97 % 1019,5 hPa 0,0 l/m N 0,00 h 0 W/m 0,4 km/h (0 Bft)
01.09.2010 03:00 5,7 C 97 % 1019,3 hPa 0,0 l/m N 0,00 h 0 W/m 0,0 km/h (0 Bft)
01.09.2010 04:00 5,0 C 96 % 1019,1 hPa 0,0 l/m N 0,00 h 0 W/m 0,1 km/h (0 Bft)
01.09.2010 05:00 4,5 C 97 % 1018,9 hPa 0,0 l/m N 0,00 h 0 W/m 0,5 km/h (0 Bft)
01.09.2010 06:00 4,3 C 97 % 1018,9 hPa 0,0 l/m N 0,00 h 8 W/m 0,9 km/h (0 Bft)
01.09.2010 07:00 4,9 C 98 % 1019,0 hPa 0,0 l/m N 0,67 h 87 W/m 0,3 km/h (0 Bft)
01.09.2010 08:00 7,9 C 95 % 1019,0 hPa 0,0 l/m N 1,00 h 256 W/m 2,4 km/h (1 Bft)
01.09.2010 09:00 11,1 C 83 % 1018,9 hPa 0,0 l/m O 1,00 h 427 W/m 4,1 km/h (1 Bft)
01.09.2010 10:00 13,7 C 71 % 1018,9 hPa 0,0 l/m O-SO 1,00 h 579 W/m 6,1 km/h (2 Bft)
01.09.2010 11:00 14,9 C 59 % 1018,8 hPa 0,0 l/m NO 0,92 h 648 W/m 11,6 km/h (2 Bft)
01.09.2010 12:00 15,7 C 57 % 1018,4 hPa 0,0 l/m NO 0,75 h 683 W/m 10,9 km/h (2 Bft)
01.09.2010 13:00 16,1 C 54 % 1018,0 hPa 0,0 l/m O-NO 0,33 h 397 W/m 9,1 km/h (2 Bft)
01.09.2010 14:00 16,8 C 53 % 1017,7 hPa 0,0 l/m O 0,67 h 665 W/m 10,1 km/h (2 Bft)
01.09.2010 15:00 17,5 C 51 % 1017,3 hPa 0,0 l/m NO 0,75 h 557 W/m 12,2 km/h (2 Bft)
01.09.2010 16:00 17,0 C 52 % 1017,0 hPa 0,0 l/m O 0,58 h 380 W/m 8,6 km/h (2 Bft)
01.09.2010 17:00 17,3 C 52 % 1016,8 hPa 0,0 l/m O-NO 0,67 h 304 W/m 11,7 km/h (2 Bft)
01.09.2010 18:00 16,2 C 61 % 1016,8 hPa 0,0 l/m O 0,50 h 126 W/m 13,4 km/h (3 Bft)
01.09.2010 19:00 15,2 C 65 % 1017,0 hPa 0,0 l/m O-NO 0,00 h 19 W/m 8,7 km/h (2 Bft)
01.09.2010 20:00 12,8 C 77 % 1017,3 hPa 0,0 l/m NO 0,00 h 0 W/m 6,3 km/h (2 Bft)
01.09.2010 21:00 11,0 C 85 % 1017,7 hPa 0,0 l/m N 0,00 h 0 W/m 1,1 km/h (0 Bft)
01.09.2010 22:00 9,6 C 91 % 1017,6 hPa 0,0 l/m N 0,00 h 0 W/m 0,3 km/h (0 Bft)
01.09.2010 23:00 8,7 C 94 % 1017,5 hPa 0,0 l/m N 0,00 h 0 W/m 0,9 km/h (0 Bft)
02.09.2010 00:00 8,5 C 95 % 1017,3 hPa 0,0 l/m NW 0,00 h 0 W/m 3,1 km/h (1 Bft)
02.09.2010 01:00 8,3 C 95 % 1017,1 hPa 0,0 l/m NW 0,00 h 0 W/m 4,4 km/h (1 Bft)
02.09.2010 02:00 8,1 C 95 % 1016,8 hPa 0,0 l/m NW 0,00 h 0 W/m 4,4 km/h (1 Bft)
02.09.2010 03:00 7,7 C 96 % 1016,8 hPa 0,0 l/m N 0,00 h 0 W/m 3,3 km/h (1 Bft)
02.09.2010 04:00 7,4 C 96 % 1016,6 hPa 0,0 l/m NW 0,00 h 0 W/m 3,1 km/h (1 Bft)
02.09.2010 05:00 7,1 C 96 % 1016,6 hPa 0,0 l/m N 0,00 h 0 W/m 2,0 km/h (1 Bft)
02.09.2010 06:00 6,7 C 97 % 1016,4 hPa 0,0 l/m N 0,00 h 9 W/m 1,6 km/h (1 Bft)
02.09.2010 07:00 7,3 C 98 % 1016,6 hPa 0,0 l/m NW 0,67 h 84 W/m 2,4 km/h (1 Bft)
02.09.2010 08:00 9,7 C 93 % 1016,6 hPa 0,0 l/m NW 1,00 h 255 W/m 4,9 km/h (1 Bft)
02.09.2010 09:00 12,4 C 84 % 1016,7 hPa 0,0 l/m NO 1,00 h 414 W/m 6,7 km/h (2 Bft)
02.09.2010 10:00 14,9 C 72 % 1016,8 hPa 0,0 l/m O-NO 1,00 h 563 W/m 10,5 km/h (2 Bft)
02.09.2010 11:00 16,2 C 66 % 1016,6 hPa 0,0 l/m O 1,00 h 667 W/m 14,0 km/h (3 Bft)
02.09.2010 12:00 17,4 C 55 % 1016,2 hPa 0,0 l/m O 1,00 h 723 W/m 16,4 km/h (3 Bft)
02.09.2010 13:00 18,3 C 52 % 1016,0 hPa 0,0 l/m O-SO 1,00 h 697 W/m 14,4 km/h (3 Bft)
02.09.2010 14:00 18,9 C 48 % 1015,7 hPa 0,0 l/m O-SO 1,00 h 693 W/m 12,5 km/h (3 Bft)
02.09.2010 15:00 19,3 C 47 % 1015,4 hPa 0,0 l/m O 1,00 h 579 W/m 12,8 km/h (3 Bft)
02.09.2010 16:00 19,4 C 50 % 1015,2 hPa 0,0 l/m O-NO 1,00 h 433 W/m 12,9 km/h (3 Bft)
02.09.2010 17:00 19,2 C 52 % 1015,0 hPa 0,0 l/m N-NO 1,00 h 289 W/m 11,4 km/h (2 Bft)
02.09.2010 18:00 18,4 C 55 % 1015,2 hPa 0,0 l/m NO 0,50 h 129 W/m 9,7 km/h (2 Bft)
02.09.2010 19:00 16,5 C 67 % 1015,5 hPa 0,0 l/m N-NO 0,00 h 27 W/m 3,6 km/h (1 Bft)
02.09.2010 20:00 14,3 C 79 % 1015,9 hPa 0,0 l/m N 0,00 h 0 W/m 1,2 km/h (1 Bft)
02.09.2010 21:00 13,4 C 83 % 1016,3 hPa 0,0 l/m N 0,00 h 0 W/m 1,2 km/h (1 Bft)
02.09.2010 22:00 12,8 C 86 % 1016,5 hPa 0,0 l/m N 0,00 h 0 W/m 1,9 km/h (1 Bft)
02.09.2010 23:00 12,7 C 87 % 1016,8 hPa 0,0 l/m N 0,00 h 0 W/m 1,9 km/h (1 Bft)
03.09.2010 00:00 12,6 C 88 % 1016,6 hPa 0,0 l/m N-NO 0,00 h 0 W/m 2,3 km/h (1 Bft)
03.09.2010 01:00 12,5 C 88 % 1016,6 hPa 0,0 l/m N-NO 0,00 h 0 W/m 5,6 km/h (1 Bft)
03.09.2010 02:00 12,7 C 88 % 1016,4 hPa 0,0 l/m N-NO 0,00 h 0 W/m 5,3 km/h (1 Bft)
03.09.2010 03:00 12,3 C 90 % 1016,5 hPa 0,0 l/m N 0,00 h 0 W/m 3,6 km/h (1 Bft)
03.09.2010 04:00 11,8 C 93 % 1016,3 hPa 0,0 l/m N-NO 0,00 h 0 W/m 2,8 km/h (1 Bft)
03.09.2010 05:00 11,7 C 93 % 1016,3 hPa 0,0 l/m N 0,00 h 0 W/m 6,1 km/h (2 Bft)
03.09.2010 06:00 11,4 C 94 % 1016,5 hPa 0,0 l/m N 0,00 h 6 W/m 2,8 km/h (1 Bft)
03.09.2010 07:00 11,4 C 94 % 1016,8 hPa 0,0 l/m O-NO 0,00 h 41 W/m 3,9 km/h (1 Bft)
03.09.2010 08:00 12,5 C 90 % 1017,1 hPa 0,0 l/m O-NO 0,50 h 195 W/m 5,9 km/h (2 Bft)
03.09.2010 09:00 14,6 C 80 % 1017,1 hPa 0,0 l/m O-SO 1,00 h 390 W/m 10,5 km/h (2 Bft)
03.09.2010 10:00 16,5 C 70 % 1017,1 hPa 0,0 l/m O-SO 1,00 h 548 W/m 12,2 km/h (2 Bft)
03.09.2010 11:00 17,7 C 62 % 1017,0 hPa 0,0 l/m O-SO 1,00 h 639 W/m 13,4 km/h (3 Bft)
03.09.2010 12:00 18,3 C 57 % 1016,9 hPa 0,0 l/m O-NO 1,00 h 722 W/m 13,4 km/h (3 Bft)
03.09.2010 13:00 19,0 C 59 % 1016,6 hPa 0,0 l/m O-NO 0,42 h 480 W/m 12,6 km/h (3 Bft)
03.09.2010 14:00 19,4 C 58 % 1016,4 hPa 0,0 l/m O-SO 0,67 h 636 W/m 12,0 km/h (2 Bft)
03.09.2010 15:00 19,8 C 56 % 1016,0 hPa 0,0 l/m O-NO 0,75 h 494 W/m 10,2 km/h (2 Bft)
03.09.2010 16:00 19,9 C 56 % 1015,7 hPa 0,0 l/m NO 0,75 h 441 W/m 10,2 km/h (2 Bft)
03.09.2010 17:00 19,7 C 58 % 1015,5 hPa 0,0 l/m O-NO 1,00 h 293 W/m 13,2 km/h (3 Bft)
03.09.2010 18:00 19,2 C 61 % 1015,4 hPa 0,0 l/m O-NO 0,50 h 140 W/m 10,8 km/h (2 Bft)
03.09.2010 19:00 17,7 C 68 % 1015,5 hPa 0,0 l/m O 0,00 h 25 W/m 7,6 km/h (2 Bft)
03.09.2010 20:00 15,0 C 81 % 1015,7 hPa 0,0 l/m N 0,00 h 0 W/m 1,6 km/h (1 Bft)
03.09.2010 21:00 13,0 C 89 % 1016,1 hPa 0,0 l/m N 0,00 h 0 W/m 0,8 km/h (0 Bft)
03.09.2010 22:00 12,6 C 91 % 1016,2 hPa 0,0 l/m N 0,00 h 0 W/m 0,9 km/h (0 Bft)
03.09.2010 23:00 12,9 C 91 % 1016,1 hPa 0,0 l/m N 0,00 h 0 W/m 1,2 km/h (1 Bft)
04.09.2010 00:00 12,5 C 92 % 1015,9 hPa 0,0 l/m N-NW 0,00 h 0 W/m 2,8 km/h (1 Bft)
04.09.2010 01:00 11,5 C 94 % 1015,6 hPa 0,0 l/m N 0,00 h 0 W/m 2,3 km/h (1 Bft)
04.09.2010 02:00 11,0 C 95 % 1015,3 hPa 0,0 l/m N-NW 0,00 h 0 W/m 3,5 km/h (1 Bft)
04.09.2010 03:00 11,4 C 96 % 1015,0 hPa 0,0 l/m N 0,00 h 0 W/m 0,4 km/h (0 Bft)
04.09.2010 04:00 11,6 C 96 % 1014,7 hPa 0,0 l/m N 0,00 h 0 W/m 0,1 km/h (0 Bft)
04.09.2010 05:00 11,3 C 96 % 1014,7 hPa 0,0 l/m N-NW 0,00 h 0 W/m 2,4 km/h (1 Bft)
04.09.2010 06:00 10,8 C 96 % 1014,7 hPa 0,0 l/m N 0,00 h 5 W/m 0,3 km/h (0 Bft)
04.09.2010 07:00 10,9 C 97 % 1015,1 hPa 0,0 l/m N 0,00 h 38 W/m 0,0 km/h (0 Bft)
04.09.2010 08:00 12,0 C 95 % 1015,5 hPa 0,0 l/m N-NW 0,17 h 118 W/m 1,6 km/h (1 Bft)
04.09.2010 09:00 13,9 C 90 % 1015,7 hPa 0,0 l/m N 0,25 h 241 W/m 3,6 km/h (1 Bft)
04.09.2010 10:00 14,6 C 86 % 1016,2 hPa 0,0 l/m NO 0,17 h 250 W/m 7,6 km/h (2 Bft)
04.09.2010 11:00 15,1 C 84 % 1016,5 hPa 0,0 l/m NO 0,00 h 225 W/m 7,2 km/h (2 Bft)
04.09.2010 12:00 15,6 C 81 % 1016,5 hPa 0,0 l/m N-NO 0,33 h 367 W/m 7,1 km/h (2 Bft)
04.09.2010 13:00 17,1 C 74 % 1016,5 hPa 0,0 l/m O-NO 0,58 h 467 W/m 11,0 km/h (2 Bft)
04.09.2010 14:00 17,8 C 69 % 1016,6 hPa 0,0 l/m O-NO 0,50 h 436 W/m 12,2 km/h (2 Bft)
04.09.2010 15:00 18,5 C 62 % 1016,4 hPa 0,0 l/m NO 0,92 h 510 W/m 12,6 km/h (3 Bft)
04.09.2010 16:00 18,7 C 56 % 1016,4 hPa 0,0 l/m N 1,00 h 463 W/m 8,3 km/h (2 Bft)
04.09.2010 17:00 19,0 C 53 % 1016,4 hPa 0,0 l/m O-NO 0,92 h 323 W/m 9,0 km/h (2 Bft)
04.09.2010 18:00 18,0 C 63 % 1016,7 hPa 0,0 l/m O 0,67 h 144 W/m 12,1 km/h (2 Bft)
04.09.2010 19:00 16,4 C 74 % 1017,0 hPa 0,0 l/m O-NO 0,00 h 28 W/m 2,9 km/h (1 Bft)
04.09.2010 20:00 13,4 C 88 % 1017,5 hPa 0,0 l/m N 0,00 h 0 W/m 0,1 km/h (0 Bft)
04.09.2010 21:00 12,5 C 90 % 1017,9 hPa 0,0 l/m N-NW 0,00 h 0 W/m 2,4 km/h (1 Bft)
04.09.2010 22:00 11,8 C 90 % 1018,1 hPa 0,0 l/m N-NO 0,00 h 0 W/m 3,6 km/h (1 Bft)
04.09.2010 23:00 11,2 C 89 % 1018,2 hPa 0,0 l/m N 0,00 h 0 W/m 2,9 km/h (1 Bft)
05.09.2010 00:00 10,8 C 91 % 1018,0 hPa 0,0 l/m N 0,00 h 0 W/m 3,6 km/h (1 Bft)
05.09.2010 01:00 10,4 C 92 % 1017,7 hPa 0,0 l/m N 0,00 h 0 W/m 3,1 km/h (1 Bft)
05.09.2010 02:00 9,7 C 94 % 1017,4 hPa 0,0 l/m N-NW 0,00 h 0 W/m 6,4 km/h (2 Bft)
05.09.2010 03:00 9,4 C 95 % 1017,5 hPa 0,0 l/m N 0,00 h 0 W/m 6,3 km/h (2 Bft)
05.09.2010 04:00 8,8 C 96 % 1017,6 hPa 0,0 l/m N 0,00 h 0 W/m 3,2 km/h (1 Bft)
05.09.2010 05:00 8,4 C 97 % 1017,6 hPa 0,0 l/m N 0,00 h 0 W/m 4,7 km/h (1 Bft)
05.09.2010 06:00 8,2 C 97 % 1017,5 hPa 0,0 l/m N 0,00 h 6 W/m 4,5 km/h (1 Bft)
05.09.2010 07:00 8,7 C 98 % 1017,7 hPa 0,0 l/m N-NO 0,00 h 28 W/m 5,9 km/h (2 Bft)
05.09.2010 08:00 9,1 C 98 % 1018,0 hPa 0,0 l/m N-NO 0,00 h 83 W/m 8,0 km/h (2 Bft)
05.09.2010 09:00 9,6 C 98 % 1018,2 hPa 0,0 l/m NO 0,00 h 129 W/m 8,3 km/h (2 Bft)
05.09.2010 10:00 11,1 C 93 % 1018,5 hPa 0,0 l/m O-NO 0,00 h 208 W/m 11,8 km/h (2 Bft)
05.09.2010 11:00 13,0 C 85 % 1018,4 hPa 0,0 l/m O 0,58 h 548 W/m 15,2 km/h (3 Bft)
05.09.2010 12:00 15,3 C 77 % 1017,8 hPa 0,0 l/m O-NO 1,00 h 707 W/m 14,9 km/h (3 Bft)
05.09.2010 13:00 17,6 C 64 % 1017,3 hPa 0,0 l/m O-NO 1,00 h 752 W/m 15,6 km/h (3 Bft)
05.09.2010 14:00 18,5 C 56 % 1017,0 hPa 0,0 l/m O-NO 0,83 h 648 W/m 17,3 km/h (3 Bft)
05.09.2010 15:00 18,6 C 57 % 1016,8 hPa 0,0 l/m NO 0,83 h 594 W/m 16,4 km/h (3 Bft)
05.09.2010 16:00 18,2 C 56 % 1016,9 hPa 0,0 l/m O-NO 0,58 h 398 W/m 15,2 km/h (3 Bft)
05.09.2010 17:00 17,9 C 55 % 1016,9 hPa 0,0 l/m O 0,50 h 272 W/m 16,2 km/h (3 Bft)
05.09.2010 18:00 17,0 C 58 % 1017,0 hPa 0,0 l/m O-SO 0,42 h 122 W/m 14,9 km/h (3 Bft)
05.09.2010 19:00 15,6 C 64 % 1017,0 hPa 0,0 l/m O 0,00 h 19 W/m 7,0 km/h (2 Bft)
05.09.2010 20:00 12,4 C 82 % 1017,5 hPa 0,0 l/m N 0,00 h 0 W/m 1,3 km/h (1 Bft)
05.09.2010 21:00 11,7 C 84 % 1017,8 hPa 0,0 l/m N 0,00 h 0 W/m 1,9 km/h (1 Bft)
05.09.2010 22:00 10,8 C 87 % 1017,6 hPa 0,0 l/m N 0,00 h 0 W/m 1,2 km/h (1 Bft)
05.09.2010 23:00 10,3 C 89 % 1017,5 hPa 0,0 l/m N 0,00 h 0 W/m 1,6 km/h (1 Bft)
Min-Datum _ 01.09.10 02.09.10 30.08.10 - - - - 31.08.10
_ Min-Zeit 07:10 14:35 03:50 - - - - 00:20
Minimum _ 4,1 C 45 % 1009,0 hPa - - - - 0,0 km/h (0 Bft)
Max-Datum _ 03.09.10 01.09.10 31.08.10 30.08.10 - 30.08.10 31.08.10 30.08.10
_ Max-Zeit 15:40 07:30 10:35 22:15 - 07:55 12:45 10:10
Maximum _ 20,2 C 98 % 1021,1 hPa 7,8 l/m - 0,08 h 1049 W/m 49,9 km/h
W-SW (6 Bft)
Durchschnitt _ 12,4 C 81 % 1016,5 hPa #23,6 l/m O-NO #45:30 h 303 W/m 9,1 km/h (2 Bft)